Time;durP1;ratioP1;P1;durP2;ratioP2;P2;SDS_P1;SDS_P2;PMS_P1;PMS_P2;Temp;Humidity;BMP_temperature;BMP_pressure;BME280_temperature;BME280_humidity;BME280_pressure;Samples;Min_cycle;Max_cycle;Signal;HPM_P1;HPM_P2
2021/01/19 00:00:43;;;;;;;20.50;14.70;;;6.50;99.90;;;4.80;100.00;100727.44;5045876;28;20242;-77
2021/01/19 00:03:28;;;;;;;21.23;14.47;;;6.60;99.90;;;4.80;100.00;100715.47;5045850;28;20644;-78
2021/01/19 00:06:16;;;;;;;26.47;15.37;;;6.60;99.90;;;4.77;100.00;100710.38;5056969;28;20194;-77
2021/01/19 00:09:01;;;;;;;21.10;13.70;;;6.50;99.90;;;4.79;100.00;100708.66;5045699;28;20805;-79
2021/01/19 00:11:46;;;;;;;15.83;8.60;;;6.50;99.90;;;4.71;100.00;100689.88;5049328;28;20306;-79
2021/01/19 00:14:32;;;;;;;16.87;11.17;;;6.60;99.90;;;4.41;100.00;100680.59;5044230;28;20231;-77
2021/01/19 00:17:17;;;;;;;18.97;12.07;;;6.60;99.90;;;4.31;100.00;100670.38;5043359;28;20249;-79
2021/01/19 00:20:05;;;;;;;21.63;12.87;;;6.70;99.90;;;4.29;100.00;100658.41;5044582;28;20270;-77
2021/01/19 00:22:51;;;;;;;14.33;9.23;;;6.60;99.90;;;4.27;100.00;100667.81;5048953;28;20230;-77
2021/01/19 00:25:36;;;;;;;18.50;9.77;;;6.60;99.90;;;4.28;100.00;100649.03;5046491;28;20210;-79
2021/01/19 00:28:22;;;;;;;22.30;9.77;;;6.50;99.90;;;4.30;100.00;100650.72;5042852;28;20203;-77
2021/01/19 00:31:09;;;;;;;14.67;9.27;;;6.50;99.90;;;4.28;100.00;100656.72;5049907;28;20251;-78
2021/01/19 00:33:54;;;;;;;12.87;8.23;;;6.50;99.90;;;4.29;100.00;100641.34;5047196;28;20210;-78
2021/01/19 00:36:39;;;;;;;15.33;9.20;;;6.50;99.90;;;4.34;100.00;100646.44;5046208;28;20222;-78
2021/01/19 00:39:25;;;;;;;15.50;7.30;;;6.50;99.90;;;4.43;100.00;100651.56;5069019;28;20210;-76
2021/01/19 00:42:11;;;;;;;22.77;8.90;;;6.40;99.90;;;4.47;100.00;100660.06;5064540;28;20254;-78
2021/01/19 00:44:56;;;;;;;13.73;7.63;;;;;;;4.46;100.00;100649.00;5062552;28;20238;-76
2021/01/19 00:47:41;;;;;;;9.90;5.83;;;6.40;99.90;;;4.52;100.00;100648.97;5064892;28;20219;-77
2021/01/19 00:50:27;;;;;;;14.67;7.27;;;6.40;99.90;;;4.49;100.00;100638.72;5059872;28;20276;-76
2021/01/19 00:53:12;;;;;;;22.33;6.73;;;6.30;99.90;;;4.49;100.00;100635.31;5070596;28;20233;-78
2021/01/19 00:55:58;;;;;;;12.57;6.70;;;6.40;99.90;;;4.48;100.00;100631.88;5071591;28;20194;-76
2021/01/19 00:58:44;;;;;;;15.03;7.27;;;6.50;99.90;;;4.50;100.00;100625.06;5067276;28;20186;-76
2021/01/19 01:01:29;;;;;;;17.53;6.90;;;6.30;99.90;;;4.48;100.00;100616.53;5058028;28;20218;-76
2021/01/19 01:04:15;;;;;;;11.47;6.23;;;;;;;4.48;100.00;100592.63;5059322;28;20214;-77
2021/01/19 01:07:00;;;;;;;18.37;6.07;;;6.40;99.90;;;4.47;100.00;100581.50;5046710;28;20631;-78
2021/01/19 01:09:45;;;;;;;15.47;5.53;;;6.20;99.90;;;4.47;100.00;100563.59;5054109;28;20211;-78
2021/01/19 01:12:31;;;;;;;14.57;5.67;;;6.10;99.90;;;4.48;100.00;100547.38;5042490;28;20230;-77
2021/01/19 01:15:24;;;;;;;12.00;4.53;;;6.20;99.90;;;4.50;100.00;100527.75;5043423;28;20679;-78
2021/01/19 01:18:13;;;;;;;12.43;5.57;;;6.30;99.90;;;4.52;100.00;100499.56;5045675;28;20208;-77
2021/01/19 01:20:58;;;;;;;12.60;5.37;;;6.30;99.90;;;4.54;100.00;100447.44;5049571;28;20238;-77
2021/01/19 01:23:43;;;;;;;12.13;4.67;;;;;;;4.53;100.00;100402.22;5049315;28;20211;-78
2021/01/19 01:26:28;;;;;;;13.73;5.77;;;6.20;99.90;;;4.49;100.00;100346.75;5051800;28;20210;-78
2021/01/19 01:29:14;;;;;;;12.60;5.30;;;6.20;99.90;;;4.51;100.00;100278.41;5039491;28;20239;-77
2021/01/19 01:31:59;;;;;;;16.20;5.33;;;6.70;99.90;;;4.47;100.00;100224.69;5046780;28;20265;-78
2021/01/19 01:34:44;;;;;;;11.23;4.47;;;6.00;99.90;;;4.48;100.00;100155.50;5051018;28;20198;-78
2021/01/19 01:37:30;;;;;;;10.97;4.67;;;6.30;99.90;;;4.51;100.00;100081.22;5048374;28;20241;-76
2021/01/19 01:40:20;;;;;;;11.87;4.80;;;6.30;99.90;;;4.45;100.00;100007.03;5048552;28;20306;-78
2021/01/19 01:43:13;;;;;;;15.73;4.97;;;6.20;99.90;;;4.39;100.00;99954.19;5043182;28;20206;-77
2021/01/19 01:45:59;;;;;;;8.50;4.13;;;6.20;99.90;;;4.30;100.00;99886.91;5052542;28;20214;-77
2021/01/19 01:48:47;;;;;;;10.43;4.20;;;6.10;99.90;;;4.33;100.00;99858.72;5043186;28;20298;-77
2021/01/19 01:51:34;;;;;;;9.93;4.10;;;6.20;99.90;;;4.33;100.00;99845.91;5041052;28;20219;-78
2021/01/19 01:54:19;;;;;;;11.73;4.63;;;6.30;99.90;;;4.32;100.00;99809.19;5053025;28;20206;-79
2021/01/19 01:57:06;;;;;;;11.00;4.93;;;6.10;99.90;;;4.36;100.00;99743.44;5058555;28;20210;-77
2021/01/19 01:59:59;;;;;;;11.80;5.30;;;6.20;99.90;;;4.32;100.00;99639.41;5052265;28;20250;-78
2021/01/19 02:02:53;;;;;;;10.03;4.67;;;6.20;99.90;;;4.30;100.00;99543.88;5051830;28;20743;-77
2021/01/19 02:05:39;;;;;;;10.00;4.90;;;;;;;4.21;100.00;99481.75;5057503;28;20211;-77
2021/01/19 02:08:41;;;;;;;8.70;3.40;;;6.20;99.90;;;4.22;100.00;99410.91;5058287;28;20238;-77
2021/01/19 02:11:42;;;;;;;10.77;3.97;;;6.90;99.90;;;4.21;100.00;99437.41;5051013;28;20234;-79
2021/01/19 02:14:35;;;;;;;10.00;4.07;;;6.00;99.90;;;4.25;100.00;99430.50;5050890;28;20275;-79
2021/01/19 02:17:32;;;;;;;8.47;3.73;;;6.10;99.90;;;4.18;100.00;99456.22;5054039;28;20214;-78
2021/01/19 02:21:15;;;;;;;12.23;3.80;;;5.90;99.90;;;4.16;100.00;99492.97;5047543;28;20266;-77
2021/01/19 02:24:11;;;;;;;9.10;4.13;;;5.70;99.90;;;4.20;100.00;99526.13;5037940;28;20223;-78
2021/01/19 02:27:24;;;;;;;11.23;3.67;;;6.40;99.90;;;4.26;100.00;99545.66;5050769;28;20222;-78
2021/01/19 02:30:52;;;;;;;11.87;4.63;;;6.00;99.90;;;4.26;100.00;99598.56;5048696;28;20357;-78
2021/01/19 02:33:54;;;;;;;7.93;4.07;;;5.80;99.90;;;4.28;100.00;99630.94;4966065;28;20276;-78
2021/01/19 02:36:52;;;;;;;8.93;4.17;;;5.50;99.90;;;4.30;100.00;99653.97;4971756;28;20221;-78
2021/01/19 02:39:47;;;;;;;9.17;4.30;;;5.90;99.90;;;4.32;100.00;99685.47;5056074;28;20211;-77
2021/01/19 02:42:42;;;;;;;11.13;3.57;;;6.60;99.90;;;4.31;100.00;99704.25;5045563;28;20250;-76
2021/01/19 02:45:28;;;;;;;12.57;4.43;;;5.90;99.90;;;4.30;100.00;99736.72;5047923;28;20234;-76
2021/01/19 02:48:13;;;;;;;11.43;3.87;;;6.00;99.90;;;4.29;100.00;99746.97;5043449;28;20246;-76
2021/01/19 02:50:59;;;;;;;7.63;3.80;;;5.90;99.90;;;4.23;100.00;99760.72;5052165;28;20229;-76
2021/01/19 02:53:45;;;;;;;8.50;3.57;;;5.90;99.90;;;4.15;100.00;99775.34;5060251;28;20199;-79
2021/01/19 02:56:47;;;;;;;9.20;3.63;;;6.00;99.90;;;4.05;100.00;99787.47;5055078;28;20210;-78
2021/01/19 02:59:49;;;;;;;14.43;4.53;;;6.00;99.90;;;3.82;100.00;99805.69;5056428;28;20198;-77
2021/01/19 03:02:38;;;;;;;14.27;4.03;;;6.00;99.90;;;3.75;100.00;99814.31;5053289;28;20234;-78
2021/01/19 03:05:26;;;;;;;9.67;3.87;;;5.90;99.90;;;3.77;100.00;99823.69;5054183;28;20222;-77
2021/01/19 03:08:14;;;;;;;10.87;4.60;;;5.90;99.90;;;3.75;100.00;99833.09;5053446;28;20341;-78
2021/01/19 03:11:03;;;;;;;12.17;5.20;;;5.80;99.90;;;3.78;100.00;99830.50;5043084;28;20299;-77
2021/01/19 03:13:49;;;;;;;14.03;5.20;;;6.80;99.90;;;3.85;100.00;99829.53;5050590;28;20749;-78
2021/01/19 03:16:34;;;;;;;15.47;5.03;;;6.70;99.90;;;3.90;100.00;99819.25;5045730;28;20643;-77
2021/01/19 03:19:20;;;;;;;10.87;5.13;;;5.80;99.90;;;3.98;100.00;99812.28;5050100;28;20218;-77
2021/01/19 03:22:07;;;;;;;8.73;4.97;;;5.80;99.90;;;4.03;100.00;99814.78;5060086;28;20218;-77
2021/01/19 03:24:53;;;;;;;9.63;5.00;;;5.70;99.90;;;4.09;100.00;99798.47;5047426;28;20218;-77
2021/01/19 03:27:38;;;;;;;13.40;6.57;;;;;;;4.08;100.00;99784.84;5049023;28;20231;-77
2021/01/19 03:30:24;;;;;;;13.50;5.10;;;5.80;99.90;;;4.02;100.00;99784.94;5049083;28;20242;-79
2021/01/19 03:33:09;;;;;;;13.57;5.83;;;;;;;3.91;100.00;99795.31;5042627;28;20305;-77
2021/01/19 03:35:55;;;;;;;7.60;4.70;;;6.10;99.90;;;3.76;100.00;99770.81;5059406;28;20213;-76
2021/01/19 03:38:40;;;;;;;14.50;5.83;;;;;;;3.52;100.00;99779.69;5054009;28;21028;-77
2021/01/19 03:41:25;;;;;;;15.93;6.93;;;5.00;99.90;;;3.36;100.00;99784.16;5044608;28;20234;-77
2021/01/19 03:44:11;;;;;;;18.40;8.33;;;6.30;99.90;;;3.28;100.00;99770.66;5050670;28;20246;-78
2021/01/19 03:46:56;;;;;;;17.67;8.07;;;5.70;99.90;;;3.28;100.00;99755.31;5054235;28;20218;-77
2021/01/19 03:49:42;;;;;;;10.97;5.80;;;;;;;3.26;100.00;99759.59;5056883;28;20211;-77
2021/01/19 03:52:27;;;;;;;15.57;6.80;;;5.60;99.90;;;3.22;100.00;99745.16;5055180;28;20701;-78
2021/01/19 03:55:13;;;;;;;20.83;7.33;;;5.60;99.90;;;3.20;100.00;99739.22;5039271;28;20262;-76
2021/01/19 03:58:01;;;;;;;20.40;8.50;;;5.50;99.90;;;3.21;100.00;99728.97;5051901;28;20206;-77
2021/01/19 04:00:46;;;;;;;13.83;7.60;;;5.50;99.90;;;3.19;100.00;99714.53;5038068;28;20266;-78
2021/01/19 04:03:31;;;;;;;15.10;7.70;;;5.50;99.90;;;3.22;100.00;99691.47;5041846;28;20723;-76
2021/01/19 04:06:16;;;;;;;16.87;9.60;;;5.50;99.90;;;3.21;100.00;99692.38;5039913;28;20211;-77
2021/01/19 04:09:02;;;;;;;13.73;8.37;;;5.50;99.90;;;3.18;100.00;99669.41;5046707;28;20202;-77
2021/01/19 04:11:47;;;;;;;20.13;9.70;;;5.50;99.90;;;3.21;100.00;99672.75;5053904;28;20727;-77
2021/01/19 04:14:33;;;;;;;14.83;9.13;;;5.40;99.90;;;3.20;100.00;99668.50;5052511;28;20210;-77
2021/01/19 04:17:18;;;;;;;11.13;7.37;;;5.30;99.90;;;3.21;100.00;99643.81;5049329;28;20214;-76
2021/01/19 04:20:05;;;;;;;15.47;9.00;;;5.40;99.90;;;3.19;100.00;99618.28;5041294;28;20376;-76
2021/01/19 04:22:50;;;;;;;16.80;8.63;;;5.40;99.90;;;3.19;100.00;99614.88;5045011;28;20239;-76
2021/01/19 04:25:36;;;;;;;17.20;8.77;;;;;;;3.16;100.00;99603.00;5047668;28;20203;-77
2021/01/19 04:28:21;;;;;;;18.80;8.50;;;;;;;3.16;100.00;99585.94;5048937;28;20425;-77
2021/01/19 04:31:07;;;;;;;17.37;10.63;;;5.30;99.90;;;3.18;100.00;99567.22;5045377;28;20301;-76
2021/01/19 04:33:52;;;;;;;12.80;6.67;;;5.20;99.90;;;3.20;100.00;99566.28;5033253;28;20583;-77
2021/01/19 04:36:37;;;;;;;17.23;9.10;;;5.40;99.90;;;3.21;100.00;99552.66;5038068;28;20802;-76
2021/01/19 04:39:22;;;;;;;18.40;9.73;;;5.10;99.90;;;3.23;100.00;99542.41;5044065;28;20283;-77
2021/01/19 04:42:08;;;;;;;16.03;8.47;;;;;;;3.23;100.00;99538.13;5042902;28;20576;-77
2021/01/19 04:44:53;;;;;;;16.33;9.27;;;5.40;99.90;;;3.25;100.00;99517.66;5050323;28;20194;-76
2021/01/19 04:47:39;;;;;;;13.33;7.50;;;5.50;99.90;;;3.26;100.00;99509.13;5041272;28;20568;-76
2021/01/19 04:50:25;;;;;;;12.97;7.60;;;5.30;99.90;;;3.29;100.00;99492.06;5039945;28;20256;-77
2021/01/19 04:53:15;;;;;;;17.73;9.37;;;5.30;99.90;;;3.32;100.00;99491.13;5042863;28;20206;-77
2021/01/19 04:56:04;;;;;;;14.17;7.20;;;5.20;99.90;;;3.31;100.00;99467.28;5041006;28;20222;-76
2021/01/19 04:58:54;;;;;;;15.23;8.13;;;5.30;99.90;;;3.30;100.00;99459.66;5045240;28;20246;-78
2021/01/19 05:02:20;;;;;;;15.97;8.07;;;5.30;99.90;;;3.30;100.00;99447.72;5040192;28;20277;-77
2021/01/19 05:06:08;;;;;;;16.23;6.87;;;4.90;99.90;;;3.31;100.00;99395.75;5039668;28;20286;-76
2021/01/19 05:08:58;;;;;;;18.37;9.23;;;5.20;99.90;;;3.33;100.00;99382.94;5017789;28;20734;-76
2021/01/19 05:11:51;;;;;;;15.23;9.47;;;5.30;99.90;;;3.35;100.00;99370.94;5039937;28;20218;-77
2021/01/19 05:14:39;;;;;;;16.63;7.60;;;5.20;99.90;;;3.34;100.00;99348.84;5038109;28;20239;-77
2021/01/19 05:17:28;;;;;;;19.63;8.13;;;;;;;3.33;100.00;99327.53;5033740;28;20199;-76
2021/01/19 05:20:13;;;;;;;11.07;6.27;;;;;;;3.33;100.00;99293.47;5046144;28;20223;-75
2021/01/19 05:22:58;;;;;;;15.23;9.10;;;5.30;99.90;;;3.37;100.00;99297.66;5044099;28;20215;-76
2021/01/19 05:25:44;;;;;;;15.67;7.87;;;5.30;99.90;;;3.36;100.00;99275.53;5041798;28;20219;-77
2021/01/19 05:28:34;;;;;;;12.97;6.47;;;5.20;99.90;;;3.38;100.00;99245.69;5040540;28;20214;-77
2021/01/19 05:31:24;;;;;;;15.43;8.17;;;5.30;99.90;;;3.41;100.00;99247.31;5042662;28;20585;-76
2021/01/19 05:34:11;;;;;;;14.00;8.17;;;5.30;99.90;;;3.43;100.00;99231.06;5050661;28;20617;-77
2021/01/19 05:36:56;;;;;;;15.33;8.07;;;5.30;99.90;;;3.44;100.00;99227.66;5043611;28;20207;-78
2021/01/19 05:39:42;;;;;;;10.50;6.67;;;5.70;99.90;;;3.44;100.00;99202.09;5037132;28;20234;-77
2021/01/19 05:42:28;;;;;;;10.80;5.93;;;5.30;99.90;;;3.46;100.00;99174.75;5042054;28;20207;-78
2021/01/19 05:45:14;;;;;;;12.00;7.07;;;5.30;99.90;;;3.48;100.00;99170.47;5042788;28;20203;-77
2021/01/19 05:48:14;;;;;;;14.67;9.13;;;5.30;99.90;;;3.52;100.00;99135.44;5045911;28;20214;-77
2021/01/19 05:51:00;;;;;;;8.00;4.90;;;5.30;99.90;;;3.54;100.00;99130.28;5041514;28;20285;-78
2021/01/19 05:53:51;;;;;;;11.20;7.40;;;5.30;99.90;;;3.56;100.00;99115.72;5044476;28;20559;-77
2021/01/19 05:56:38;;;;;;;14.77;8.37;;;5.30;99.90;;;3.58;100.00;99089.25;5044144;28;20333;-76
2021/01/19 05:59:33;;;;;;;12.10;6.60;;;5.40;99.90;;;3.60;100.00;99079.00;5058172;28;20202;-77
2021/01/19 06:02:21;;;;;;;13.03;7.57;;;5.40;99.90;;;3.62;100.00;99107.94;5056170;28;20202;-78
2021/01/19 06:05:11;;;;;;;9.30;7.33;;;5.40;99.90;;;3.64;100.00;99091.66;5053191;28;20207;-77
2021/01/19 06:08:02;;;;;;;12.07;7.70;;;5.50;99.90;;;3.64;100.00;99075.50;5049298;28;20215;-77
2021/01/19 06:10:48;;;;;;;10.33;6.53;;;5.40;99.90;;;3.71;100.00;99071.91;5042232;28;20295;-77
2021/01/19 06:13:33;;;;;;;8.60;5.93;;;5.50;99.90;;;3.72;100.00;99052.28;5038309;28;20277;-77
2021/01/19 06:16:23;;;;;;;14.23;6.90;;;5.30;99.90;;;3.73;100.00;99038.63;5042415;28;20259;-77
2021/01/19 06:19:08;;;;;;;8.73;6.53;;;5.50;99.90;;;3.78;100.00;99014.59;5051649;28;20210;-77
2021/01/19 06:21:53;;;;;;;10.37;7.07;;;5.50;99.90;;;3.82;100.00;98995.75;5045667;28;20231;-77
2021/01/19 06:24:42;;;;;;;9.63;7.80;;;5.60;99.90;;;3.83;100.00;98971.81;5049523;28;20215;-77
2021/01/19 06:27:30;;;;;;;11.10;7.50;;;5.60;99.90;;;3.86;100.00;98956.38;5049961;28;20291;-76
2021/01/19 06:30:16;;;;;;;14.43;7.83;;;5.60;99.90;;;3.90;100.00;98963.97;5048336;28;20269;-77
2021/01/19 06:33:04;;;;;;;12.50;7.80;;;5.60;99.90;;;3.90;100.00;98930.72;5054751;28;20261;-77
2021/01/19 06:35:55;;;;;;;11.13;7.23;;;5.60;99.90;;;3.93;100.00;98910.19;5039668;28;20203;-76
2021/01/19 06:38:45;;;;;;;9.03;6.87;;;5.70;99.90;;;3.91;100.00;98884.63;5041985;28;20210;-77
2021/01/19 06:41:40;;;;;;;10.73;7.87;;;5.70;99.90;;;3.93;100.00;98861.59;5050535;28;20550;-77
2021/01/19 06:44:36;;;;;;;10.10;8.03;;;5.70;99.90;;;3.96;100.00;98851.28;5048615;28;20261;-77
2021/01/19 06:47:21;;;;;;;7.50;5.47;;;5.70;99.90;;;3.97;100.00;98820.53;5049847;28;20254;-77
2021/01/19 06:50:09;;;;;;;10.07;6.73;;;5.70;99.90;;;3.98;100.00;98818.78;5046350;28;20242;-76
2021/01/19 06:53:15;;;;;;;10.57;7.13;;;5.80;99.90;;;3.99;100.00;98782.09;5052478;28;20238;-77
2021/01/19 06:56:12;;;;;;;8.70;6.63;;;5.70;99.90;;;4.01;100.00;98767.53;5043150;28;20242;-77
2021/01/19 06:58:59;;;;;;;9.57;7.50;;;5.80;99.90;;;4.03;100.00;98755.50;5047803;28;20239;-76
2021/01/19 07:01:56;;;;;;;11.23;8.37;;;5.80;99.90;;;4.04;100.00;98729.06;5040356;28;20251;-76
2021/01/19 07:04:48;;;;;;;10.63;7.47;;;5.80;99.90;;;4.04;100.00;98711.16;5042415;28;20204;-76
2021/01/19 07:07:41;;;;;;;7.17;5.97;;;5.80;99.90;;;4.08;100.00;98704.22;5043114;28;20583;-75
2021/01/19 07:10:50;;;;;;;8.53;6.63;;;5.80;99.90;;;4.08;100.00;98686.31;5039789;28;20223;-76
2021/01/19 07:13:41;;;;;;;8.10;6.47;;;5.90;99.90;;;4.11;100.00;98681.09;5048554;28;20205;-76
2021/01/19 07:16:41;;;;;;;9.90;6.97;;;5.90;99.90;;;4.14;100.00;98656.22;5044291;28;20261;-77
2021/01/19 07:19:43;;;;;;;8.73;6.90;;;5.90;99.90;;;4.15;100.00;98657.03;5045727;28;20683;-75
2021/01/19 07:22:57;;;;;;;8.43;6.37;;;5.90;99.90;;;4.19;100.00;98630.47;5038029;28;20210;-76
2021/01/19 07:25:45;;;;;;;9.07;7.50;;;5.90;99.90;;;4.20;100.00;98632.16;5040418;28;20315;-75
2021/01/19 07:28:31;;;;;;;9.00;6.57;;;5.90;99.90;;;4.22;100.00;98607.31;5031717;28;20199;-75
2021/01/19 07:31:18;;;;;;;7.90;6.53;;;5.90;99.90;;;4.24;100.00;98574.88;5039083;28;20265;-76
2021/01/19 07:34:06;;;;;;;11.20;6.53;;;6.00;99.90;;;4.26;100.00;98556.88;5043851;28;20267;-76
2021/01/19 07:36:56;;;;;;;7.40;6.27;;;6.00;99.90;;;4.26;100.00;98572.25;5034812;28;20216;-76
2021/01/19 07:39:41;;;;;;;7.97;6.50;;;6.00;99.90;;;4.34;100.00;98554.88;5042862;28;20215;-75
2021/01/19 07:42:31;;;;;;;7.97;6.73;;;6.10;99.90;;;4.34;100.00;98540.38;5046364;28;20571;-77
2021/01/19 07:45:27;;;;;;;9.23;6.90;;;6.10;99.90;;;4.37;100.00;98536.84;5048566;28;20246;-76
2021/01/19 07:48:12;;;;;;;9.37;7.40;;;6.10;99.90;;;4.38;100.00;98535.94;5040319;28;20235;-76
2021/01/19 07:51:10;;;;;;;8.20;6.57;;;6.10;99.90;;;4.41;100.00;98528.16;5041143;28;20223;-77
2021/01/19 07:53:56;;;;;;;6.07;4.77;;;6.10;99.90;;;4.43;100.00;98508.47;5045428;28;20222;-76
2021/01/19 07:56:42;;;;;;;8.17;5.47;;;6.20;99.90;;;4.46;100.00;98500.69;5041342;28;20603;-76
2021/01/19 07:59:34;;;;;;;6.50;5.83;;;6.20;99.90;;;4.51;100.00;98488.50;5038803;28;20214;-75
2021/01/19 08:02:25;;;;;;;7.00;6.13;;;6.20;99.90;;;4.52;100.00;98467.16;5053845;28;20237;-75
2021/01/19 08:05:12;;;;;;;8.17;5.17;;;6.20;99.90;;;4.52;100.00;98462.03;5058988;28;20203;-75
2021/01/19 08:07:57;;;;;;;8.10;6.03;;;6.20;99.90;;;4.57;100.00;98431.13;5057542;28;20277;-75
2021/01/19 08:10:55;;;;;;;7.40;5.83;;;6.30;99.90;;;4.61;100.00;98413.94;5041931;28;20615;-76
2021/01/19 08:13:42;;;;;;;7.13;4.90;;;6.30;99.90;;;4.63;100.00;98404.44;5044221;28;20760;-75
2021/01/19 08:16:29;;;;;;;7.57;4.93;;;6.30;99.90;;;4.66;100.00;98424.81;5039273;28;20231;-76
2021/01/19 08:19:16;;;;;;;7.17;5.27;;;6.40;99.90;;;4.67;100.00;98394.00;5048000;28;20729;-75
2021/01/19 08:22:02;;;;;;;8.73;5.37;;;6.40;99.90;;;4.72;100.00;98392.13;5037567;28;20222;-76
2021/01/19 08:24:46;;;;;;;7.47;3.80;;;6.40;99.90;;;4.75;100.00;98398.81;5036020;28;20644;-76
2021/01/19 08:27:32;;;;;;;6.67;4.37;;;6.40;99.90;;;4.77;100.00;98383.38;5049902;28;20214;-75
2021/01/19 08:30:26;;;;;;;6.10;3.87;;;6.40;99.90;;;4.79;100.00;98377.31;5038695;28;20246;-76
2021/01/19 08:33:13;;;;;;;8.97;5.50;;;6.50;99.90;;;4.83;100.00;98349.84;5044239;28;20735;-76
2021/01/19 08:36:05;;;;;;;4.90;4.10;;;6.50;99.90;;;4.85;100.00;98348.06;5032512;28;20253;-76
2021/01/19 08:38:54;;;;;;;6.80;5.30;;;6.50;99.90;;;4.91;100.00;98340.09;5042102;28;20211;-75
2021/01/19 08:41:44;;;;;;;6.37;4.80;;;6.50;99.90;;;4.96;100.00;98301.47;5035738;28;20243;-75
2021/01/19 08:44:29;;;;;;;6.97;4.40;;;6.60;99.90;;;4.97;100.00;98303.97;5039762;28;20210;-76
2021/01/19 08:47:17;;;;;;;7.67;5.07;;;6.60;99.90;;;5.00;100.00;98282.50;5035595;28;20211;-75
2021/01/19 08:50:02;;;;;;;5.03;4.23;;;6.60;99.90;;;5.02;100.00;98265.34;5039825;28;20718;-77
2021/01/19 08:52:47;;;;;;;6.77;5.13;;;6.70;99.90;;;5.07;100.00;98258.28;5040242;28;20204;-77
2021/01/19 08:55:33;;;;;;;6.80;5.23;;;6.70;99.90;;;5.08;100.00;98265.91;5040291;28;20643;-76
2021/01/19 08:58:20;;;;;;;5.70;4.90;;;6.80;99.90;;;5.13;100.00;98231.56;5038542;28;20242;-76
2021/01/19 09:01:05;;;;;;;8.20;4.77;;;6.80;99.90;;;5.21;100.00;98230.31;5045139;28;20223;-75
2021/01/19 09:03:59;;;;;;;7.37;5.00;;;6.80;99.90;;;5.19;100.00;98221.03;5052189;28;20249;-76
2021/01/19 09:06:45;;;;;;;9.10;5.30;;;6.80;99.90;;;5.21;100.00;98207.25;5047138;28;20265;-75
2021/01/19 09:09:30;;;;;;;7.77;5.50;;;6.90;99.90;;;5.24;100.00;98212.22;5052191;28;20245;-75
2021/01/19 09:12:16;;;;;;;7.70;5.40;;;6.90;99.90;;;5.25;100.00;98216.44;5046703;28;20683;-75
2021/01/19 09:15:02;;;;;;;5.33;3.40;;;6.90;99.90;;;5.31;100.00;98196.56;5042984;28;20211;-75
2021/01/19 09:17:56;;;;;;;6.33;4.37;;;7.00;99.90;;;5.33;100.00;98198.16;5044793;28;20207;-74
2021/01/19 09:20:43;;;;;;;5.40;4.70;;;7.00;99.90;;;5.34;100.00;98173.34;5044809;28;20231;-77
2021/01/19 09:23:33;;;;;;;5.63;4.57;;;7.00;99.90;;;5.39;100.00;98176.53;5049088;28;20302;-76
2021/01/19 09:26:19;;;;;;;6.47;4.47;;;7.10;99.90;;;5.42;100.00;98176.41;5049114;28;20211;-76
2021/01/19 09:29:06;;;;;;;6.80;3.30;;;7.10;99.90;;;5.45;100.00;98169.38;5042158;28;20266;-77
2021/01/19 09:31:51;;;;;;;9.33;5.07;;;7.10;99.90;;;5.49;100.00;98152.09;5046753;28;20737;-76
2021/01/19 09:34:36;;;;;;;7.37;4.07;;;7.10;99.90;;;5.53;100.00;98143.34;5037301;28;20218;-77
2021/01/19 09:37:22;;;;;;;5.87;4.40;;;7.20;99.90;;;5.57;100.00;98152.56;5038688;28;20207;-77
2021/01/19 09:40:09;;;;;;;7.77;4.80;;;7.20;99.90;;;5.59;100.00;98140.50;5041277;28;20243;-77
2021/01/19 09:42:54;;;;;;;6.13;4.57;;;7.30;99.90;;;5.63;100.00;98129.19;5044111;28;20597;-77
2021/01/19 09:45:40;;;;;;;7.10;5.17;;;7.30;99.90;;;5.67;100.00;98118.78;5040535;28;20656;-77
2021/01/19 09:48:27;;;;;;;5.87;5.27;;;7.30;99.90;;;5.70;100.00;98123.75;5039770;28;20214;-76
2021/01/19 09:51:12;;;;;;;6.27;5.53;;;7.40;99.90;;;5.73;100.00;98110.81;5043088;28;20311;-76
2021/01/19 09:54:00;;;;;;;7.37;5.60;;;7.40;99.90;;;5.76;100.00;98102.94;5044271;28;20214;-77
2021/01/19 09:56:55;;;;;;;5.63;5.00;;;7.50;99.90;;;5.81;100.00;98100.97;5045641;28;20247;-75
2021/01/19 09:59:40;;;;;;;6.67;5.17;;;7.50;99.90;;;5.85;100.00;98094.78;5038626;28;20204;-75
2021/01/19 10:02:29;;;;;;;6.80;5.40;;;7.50;99.90;;;5.86;100.00;98104.16;5047333;28;20258;-76
2021/01/19 10:05:22;;;;;;;3.57;3.20;;;7.60;99.90;;;5.90;100.00;98100.50;5041991;28;20260;-75
2021/01/19 10:08:08;;;;;;;8.27;6.00;;;7.60;99.90;;;5.96;100.00;98115.59;5048516;28;20584;-75
2021/01/19 10:10:54;;;;;;;5.83;4.80;;;7.60;99.90;;;6.03;100.00;98125.59;5048651;28;20223;-76
2021/01/19 10:13:40;;;;;;;7.67;5.30;;;7.60;99.90;;;6.07;100.00;98234.88;5040523;28;20280;-76
2021/01/19 10:16:29;;;;;;;8.13;5.90;;;7.70;99.90;;;6.09;100.00;98233.88;5038740;28;20223;-76
2021/01/19 10:19:21;;;;;;;6.23;4.40;;;7.70;99.90;;;6.12;100.00;98232.91;5037353;28;20238;-76
2021/01/19 10:22:09;;;;;;;7.80;5.90;;;7.70;99.90;;;6.17;100.00;98212.13;5039027;28;20441;-77
2021/01/19 10:24:54;;;;;;;9.47;6.13;;;7.80;99.90;;;6.18;100.00;98222.34;5044051;28;20207;-75
2021/01/19 10:27:44;;;;;;;8.40;6.90;;;7.80;99.90;;;6.24;100.00;98214.31;5044666;28;20222;-75
2021/01/19 10:30:33;;;;;;;10.07;6.60;;;7.90;99.90;;;6.27;100.00;98211.59;5046331;28;20739;-75
2021/01/19 10:33:28;;;;;;;6.80;5.50;;;7.90;99.90;;;6.32;100.00;98199.38;5040310;28;20214;-75
2021/01/19 10:36:13;;;;;;;6.43;5.07;;;8.00;99.90;;;6.34;100.00;98193.34;5041037;28;20572;-75
2021/01/19 10:39:06;;;;;;;10.33;6.93;;;8.00;99.90;;;6.41;100.00;98204.97;5041870;28;20277;-75
2021/01/19 10:41:52;;;;;;;8.57;7.03;;;8.00;99.90;;;6.48;100.00;98190.88;5047228;28;20223;-78
2021/01/19 10:44:39;;;;;;;10.00;7.37;;;8.10;99.90;;;6.50;100.00;98217.31;5052064;28;20226;-74
2021/01/19 10:47:26;;;;;;;9.97;8.00;;;8.10;99.90;;;6.55;100.00;99861.16;5040904;28;20206;-76
2021/01/19 10:50:13;;;;;;;12.77;8.50;;;8.20;99.90;;;6.59;100.00;99939.88;5048257;28;20285;-75
2021/01/19 10:53:01;;;;;;;11.57;9.03;;;8.20;99.90;;;6.62;100.00;99968.06;5049308;28;20204;-76
2021/01/19 10:55:46;;;;;;;10.70;7.90;;;8.20;99.90;;;6.67;100.00;99987.66;5047465;28;20219;-77
2021/01/19 10:58:31;;;;;;;11.30;8.30;;;8.30;99.90;;;6.72;100.00;100002.94;5044287;28;20206;-75
2021/01/19 11:01:17;;;;;;;12.20;8.67;;;8.30;99.90;;;6.79;100.00;100001.06;5043864;28;20300;-77
2021/01/19 11:04:08;;;;;;;13.33;9.77;;;8.30;99.90;;;6.84;100.00;100010.38;5045849;28;20283;-75
2021/01/19 11:06:53;;;;;;;10.40;6.90;;;8.40;99.90;;;6.97;100.00;100021.22;5042464;28;20284;-76
2021/01/19 11:09:38;;;;;;;11.77;9.13;;;8.40;99.90;;;7.03;100.00;100129.06;5044969;28;20214;-77
2021/01/19 11:12:23;;;;;;;11.20;9.17;;;8.50;99.90;;;7.07;100.00;100123.84;5042620;28;20554;-76
2021/01/19 11:15:12;;;;;;;13.93;10.20;;;8.50;99.90;;;7.14;100.00;100122.84;5039531;28;20265;-76
2021/01/19 11:17:58;;;;;;;14.07;9.47;;;8.60;99.90;;;7.20;100.00;100103.00;5044905;28;20330;-75
2021/01/19 11:20:43;;;;;;;12.93;9.50;;;8.60;99.90;;;7.28;100.00;100091.66;5043162;28;20668;-76
2021/01/19 11:23:29;;;;;;;12.13;9.23;;;8.70;99.90;;;7.39;100.00;100079.38;5043272;28;20213;-76
2021/01/19 11:26:16;;;;;;;13.17;9.00;;;8.80;99.90;;;7.48;100.00;100088.59;5045990;28;20772;-76
2021/01/19 11:29:01;;;;;;;13.77;10.23;;;8.80;99.90;;;7.57;100.00;100066.94;5045240;28;20203;-76
2021/01/19 11:31:46;;;;;;;11.47;8.67;;;8.90;99.90;;;7.62;100.00;100073.66;5049422;28;20302;-75
2021/01/19 11:34:32;;;;;;;11.67;7.70;;;8.90;99.90;;;7.71;100.00;100045.09;5044415;28;20707;-75
2021/01/19 11:37:17;;;;;;;13.60;8.37;;;9.00;99.90;;;7.75;100.00;100051.03;5049707;28;20246;-75
2021/01/19 11:40:04;;;;;;;10.50;7.23;;;9.00;99.90;;;7.83;100.00;100036.22;5041724;28;20230;-75
2021/01/19 11:42:49;;;;;;;11.07;7.77;;;9.10;99.90;;;7.83;100.00;100028.47;5046148;28;20210;-76
2021/01/19 11:45:37;;;;;;;10.80;7.33;;;9.20;99.90;;;7.89;100.00;100027.47;5045268;28;20672;-74
2021/01/19 11:48:22;;;;;;;11.87;8.70;;;9.00;99.90;;;7.93;100.00;100023.06;5040289;28;20222;-76
2021/01/19 11:51:08;;;;;;;11.53;8.17;;;9.30;99.90;;;7.92;100.00;100022.25;5039639;28;20262;-74
2021/01/19 11:53:56;;;;;;;13.30;8.97;;;9.30;99.90;;;7.95;100.00;100011.84;5046024;28;20210;-75